<?xml version="1.0" encoding="UTF-8" standalone="no" ?>
<gpx xmlns="http://www.topografix.com/GPX/1/1" xmlns:xsi="http://www.w3.org/2001/XMLSchema-instance" xsi:schemaLocation="http://www.topografix.com/GPX/1/1 http://www.topografix.com/GPX/1/1/gpx.xsd" version="1.1" creator="VisuGPX - https://www.visugpx.com">
  <metadata>
    <name>15648620-St André la Côte  TGV Chapuis</name>
  </metadata>
  <trk>
    <name><![CDATA[15648620-St André la Côte  TGV Chapuis]]></name>
    <extensions>
      <line xmlns="http://www.topografix.com/GPX/gpx_style/0/2">
        <color>0000FF</color>
        <width>4</width>
      </line>
    </extensions>
    <trkseg>
      <trkpt lat="45.62906" lon="4.60175">
        <ele>839</ele>
        <time>2022-10-06T19:38:39Z</time>
      </trkpt>
      <trkpt lat="45.62906" lon="4.60166">
        <ele>840</ele>
        <time>2022-10-06T19:38:47Z</time>
      </trkpt>
      <trkpt lat="45.62911" lon="4.60153">
        <ele>840</ele>
        <time>2022-10-06T19:39:01Z</time>
      </trkpt>
      <trkpt lat="45.62934" lon="4.60092">
        <ele>842</ele>
        <time>2022-10-06T19:40:06Z</time>
      </trkpt>
      <trkpt lat="45.62941" lon="4.60069">
        <ele>842</ele>
        <time>2022-10-06T19:40:29Z</time>
      </trkpt>
      <trkpt lat="45.62954" lon="4.60042">
        <ele>843</ele>
        <time>2022-10-06T19:41:00Z</time>
      </trkpt>
      <trkpt lat="45.62955" lon="4.60039">
        <ele>843</ele>
        <time>2022-10-06T19:41:03Z</time>
      </trkpt>
      <trkpt lat="45.62962" lon="4.60039">
        <ele>844</ele>
        <time>2022-10-06T19:41:12Z</time>
      </trkpt>
      <trkpt lat="45.62981" lon="4.60035">
        <ele>845</ele>
        <time>2022-10-06T19:41:38Z</time>
      </trkpt>
      <trkpt lat="45.62985" lon="4.6004">
        <ele>845</ele>
        <time>2022-10-06T19:41:45Z</time>
      </trkpt>
      <trkpt lat="45.62981" lon="4.60035">
        <ele>845</ele>
        <time>2022-10-06T19:41:52Z</time>
      </trkpt>
      <trkpt lat="45.62984" lon="4.60029">
        <ele>845</ele>
        <time>2022-10-06T19:41:59Z</time>
      </trkpt>
      <trkpt lat="45.62989" lon="4.60012">
        <ele>846</ele>
        <time>2022-10-06T19:42:16Z</time>
      </trkpt>
      <trkpt lat="45.63" lon="4.59991">
        <ele>847</ele>
        <time>2022-10-06T19:42:41Z</time>
      </trkpt>
      <trkpt lat="45.63005" lon="4.59976">
        <ele>849</ele>
        <time>2022-10-06T19:42:56Z</time>
      </trkpt>
      <trkpt lat="45.63014" lon="4.59948">
        <ele>852</ele>
        <time>2022-10-06T19:43:25Z</time>
      </trkpt>
      <trkpt lat="45.63019" lon="4.59921">
        <ele>854</ele>
        <time>2022-10-06T19:43:51Z</time>
      </trkpt>
      <trkpt lat="45.63022" lon="4.59921">
        <ele>855</ele>
        <time>2022-10-06T19:43:55Z</time>
      </trkpt>
      <trkpt lat="45.63033" lon="4.59923">
        <ele>857</ele>
        <time>2022-10-06T19:44:10Z</time>
      </trkpt>
      <trkpt lat="45.63038" lon="4.59904">
        <ele>859</ele>
        <time>2022-10-06T19:44:29Z</time>
      </trkpt>
      <trkpt lat="45.63034" lon="4.59887">
        <ele>858</ele>
        <time>2022-10-06T19:44:46Z</time>
      </trkpt>
      <trkpt lat="45.63029" lon="4.59874">
        <ele>858</ele>
        <time>2022-10-06T19:44:59Z</time>
      </trkpt>
      <trkpt lat="45.63034" lon="4.59859">
        <ele>859</ele>
        <time>2022-10-06T19:45:15Z</time>
      </trkpt>
      <trkpt lat="45.63036" lon="4.5985">
        <ele>860</ele>
        <time>2022-10-06T19:45:24Z</time>
      </trkpt>
      <trkpt lat="45.6305" lon="4.5982">
        <ele>863</ele>
        <time>2022-10-06T19:45:57Z</time>
      </trkpt>
      <trkpt lat="45.6308" lon="4.59775">
        <ele>868</ele>
        <time>2022-10-06T19:46:55Z</time>
      </trkpt>
      <trkpt lat="45.63084" lon="4.59766">
        <ele>869</ele>
        <time>2022-10-06T19:47:05Z</time>
      </trkpt>
      <trkpt lat="45.6311" lon="4.59701">
        <ele>869</ele>
        <time>2022-10-06T19:48:15Z</time>
      </trkpt>
      <trkpt lat="45.63115" lon="4.59691">
        <ele>869</ele>
        <time>2022-10-06T19:48:27Z</time>
      </trkpt>
      <trkpt lat="45.63119" lon="4.59684">
        <ele>869</ele>
        <time>2022-10-06T19:48:35Z</time>
      </trkpt>
      <trkpt lat="45.63151" lon="4.59694">
        <ele>871</ele>
        <time>2022-10-06T19:49:19Z</time>
      </trkpt>
      <trkpt lat="45.63188" lon="4.59696">
        <ele>872</ele>
        <time>2022-10-06T19:50:08Z</time>
      </trkpt>
      <trkpt lat="45.63224" lon="4.59689">
        <ele>873</ele>
        <time>2022-10-06T19:50:57Z</time>
      </trkpt>
      <trkpt lat="45.63251" lon="4.59683">
        <ele>872</ele>
        <time>2022-10-06T19:51:33Z</time>
      </trkpt>
      <trkpt lat="45.63299" lon="4.59672">
        <ele>871</ele>
        <time>2022-10-06T19:52:38Z</time>
      </trkpt>
      <trkpt lat="45.63339" lon="4.59665">
        <ele>870</ele>
        <time>2022-10-06T19:53:32Z</time>
      </trkpt>
      <trkpt lat="45.6337" lon="4.59667">
        <ele>870</ele>
        <time>2022-10-06T19:54:13Z</time>
      </trkpt>
      <trkpt lat="45.63394" lon="4.59661">
        <ele>869</ele>
        <time>2022-10-06T19:54:46Z</time>
      </trkpt>
      <trkpt lat="45.6344" lon="4.59656">
        <ele>866</ele>
        <time>2022-10-06T19:55:47Z</time>
      </trkpt>
      <trkpt lat="45.63447" lon="4.59656">
        <ele>866</ele>
        <time>2022-10-06T19:55:57Z</time>
      </trkpt>
      <trkpt lat="45.63491" lon="4.59661">
        <ele>864</ele>
        <time>2022-10-06T19:56:56Z</time>
      </trkpt>
      <trkpt lat="45.63506" lon="4.59668">
        <ele>864</ele>
        <time>2022-10-06T19:57:17Z</time>
      </trkpt>
      <trkpt lat="45.63515" lon="4.59672">
        <ele>864</ele>
        <time>2022-10-06T19:57:29Z</time>
      </trkpt>
      <trkpt lat="45.6354" lon="4.59677">
        <ele>863</ele>
        <time>2022-10-06T19:58:03Z</time>
      </trkpt>
      <trkpt lat="45.6356" lon="4.5967">
        <ele>862</ele>
        <time>2022-10-06T19:58:30Z</time>
      </trkpt>
      <trkpt lat="45.63571" lon="4.59663">
        <ele>861</ele>
        <time>2022-10-06T19:58:46Z</time>
      </trkpt>
      <trkpt lat="45.63577" lon="4.59676">
        <ele>861</ele>
        <time>2022-10-06T19:59:01Z</time>
      </trkpt>
      <trkpt lat="45.63583" lon="4.59682">
        <ele>861</ele>
        <time>2022-10-06T19:59:11Z</time>
      </trkpt>
      <trkpt lat="45.63575" lon="4.59674">
        <ele>861</ele>
        <time>2022-10-06T19:59:24Z</time>
      </trkpt>
      <trkpt lat="45.63571" lon="4.59663">
        <ele>861</ele>
        <time>2022-10-06T19:59:35Z</time>
      </trkpt>
      <trkpt lat="45.63557" lon="4.59619">
        <ele>862</ele>
        <time>2022-10-06T20:00:20Z</time>
      </trkpt>
      <trkpt lat="45.63533" lon="4.59587">
        <ele>860</ele>
        <time>2022-10-06T20:01:04Z</time>
      </trkpt>
      <trkpt lat="45.63528" lon="4.59577">
        <ele>860</ele>
        <time>2022-10-06T20:01:16Z</time>
      </trkpt>
      <trkpt lat="45.63525" lon="4.59569">
        <ele>859</ele>
        <time>2022-10-06T20:01:24Z</time>
      </trkpt>
      <trkpt lat="45.63512" lon="4.59477">
        <ele>857</ele>
        <time>2022-10-06T20:02:52Z</time>
      </trkpt>
      <trkpt lat="45.6351" lon="4.59473">
        <ele>857</ele>
        <time>2022-10-06T20:02:56Z</time>
      </trkpt>
      <trkpt lat="45.63503" lon="4.59464">
        <ele>855</ele>
        <time>2022-10-06T20:03:09Z</time>
      </trkpt>
      <trkpt lat="45.63506" lon="4.59444">
        <ele>856</ele>
        <time>2022-10-06T20:03:28Z</time>
      </trkpt>
      <trkpt lat="45.63507" lon="4.59421">
        <ele>856</ele>
        <time>2022-10-06T20:03:49Z</time>
      </trkpt>
      <trkpt lat="45.63511" lon="4.59417">
        <ele>857</ele>
        <time>2022-10-06T20:03:56Z</time>
      </trkpt>
      <trkpt lat="45.6352" lon="4.59395">
        <ele>860</ele>
        <time>2022-10-06T20:04:20Z</time>
      </trkpt>
      <trkpt lat="45.63531" lon="4.59375">
        <ele>864</ele>
        <time>2022-10-06T20:04:44Z</time>
      </trkpt>
      <trkpt lat="45.6355" lon="4.59324">
        <ele>872</ele>
        <time>2022-10-06T20:05:37Z</time>
      </trkpt>
      <trkpt lat="45.63568" lon="4.59275">
        <ele>878</ele>
        <time>2022-10-06T20:06:29Z</time>
      </trkpt>
      <trkpt lat="45.6358" lon="4.59255">
        <ele>882</ele>
        <time>2022-10-06T20:06:54Z</time>
      </trkpt>
      <trkpt lat="45.63619" lon="4.59213">
        <ele>888</ele>
        <time>2022-10-06T20:07:59Z</time>
      </trkpt>
      <trkpt lat="45.63647" lon="4.59183">
        <ele>893</ele>
        <time>2022-10-06T20:08:46Z</time>
      </trkpt>
      <trkpt lat="45.63656" lon="4.59177">
        <ele>895</ele>
        <time>2022-10-06T20:08:59Z</time>
      </trkpt>
      <trkpt lat="45.63662" lon="4.59187">
        <ele>897</ele>
        <time>2022-10-06T20:09:11Z</time>
      </trkpt>
      <trkpt lat="45.63672" lon="4.59208">
        <ele>901</ele>
        <time>2022-10-06T20:09:35Z</time>
      </trkpt>
      <trkpt lat="45.63683" lon="4.59224">
        <ele>905</ele>
        <time>2022-10-06T20:09:56Z</time>
      </trkpt>
      <trkpt lat="45.63686" lon="4.59236">
        <ele>907</ele>
        <time>2022-10-06T20:10:08Z</time>
      </trkpt>
      <trkpt lat="45.63687" lon="4.59261">
        <ele>908</ele>
        <time>2022-10-06T20:10:31Z</time>
      </trkpt>
      <trkpt lat="45.63716" lon="4.59319">
        <ele>918</ele>
        <time>2022-10-06T20:11:38Z</time>
      </trkpt>
      <trkpt lat="45.63722" lon="4.5934">
        <ele>920</ele>
        <time>2022-10-06T20:11:59Z</time>
      </trkpt>
      <trkpt lat="45.63733" lon="4.59357">
        <ele>921</ele>
        <time>2022-10-06T20:12:20Z</time>
      </trkpt>
      <trkpt lat="45.63757" lon="4.59384">
        <ele>923</ele>
        <time>2022-10-06T20:13:01Z</time>
      </trkpt>
      <trkpt lat="45.63761" lon="4.59382">
        <ele>924</ele>
        <time>2022-10-06T20:13:07Z</time>
      </trkpt>
      <trkpt lat="45.63771" lon="4.59377">
        <ele>926</ele>
        <time>2022-10-06T20:13:21Z</time>
      </trkpt>
      <trkpt lat="45.63784" lon="4.59364">
        <ele>929</ele>
        <time>2022-10-06T20:13:42Z</time>
      </trkpt>
      <trkpt lat="45.63807" lon="4.59333">
        <ele>934</ele>
        <time>2022-10-06T20:14:24Z</time>
      </trkpt>
      <trkpt lat="45.63822" lon="4.59327">
        <ele>935</ele>
        <time>2022-10-06T20:14:45Z</time>
      </trkpt>
      <trkpt lat="45.63823" lon="4.59314">
        <ele>935</ele>
        <time>2022-10-06T20:14:57Z</time>
      </trkpt>
      <trkpt lat="45.63822" lon="4.59327">
        <ele>935</ele>
        <time>2022-10-06T20:15:09Z</time>
      </trkpt>
      <trkpt lat="45.63807" lon="4.59333">
        <ele>934</ele>
        <time>2022-10-06T20:15:30Z</time>
      </trkpt>
      <trkpt lat="45.63784" lon="4.59364">
        <ele>929</ele>
        <time>2022-10-06T20:16:12Z</time>
      </trkpt>
      <trkpt lat="45.63771" lon="4.59377">
        <ele>926</ele>
        <time>2022-10-06T20:16:33Z</time>
      </trkpt>
      <trkpt lat="45.63764" lon="4.5938">
        <ele>925</ele>
        <time>2022-10-06T20:16:43Z</time>
      </trkpt>
      <trkpt lat="45.63757" lon="4.59384">
        <ele>923</ele>
        <time>2022-10-06T20:16:53Z</time>
      </trkpt>
      <trkpt lat="45.63733" lon="4.59357">
        <ele>921</ele>
        <time>2022-10-06T20:17:34Z</time>
      </trkpt>
      <trkpt lat="45.63728" lon="4.59349">
        <ele>921</ele>
        <time>2022-10-06T20:17:44Z</time>
      </trkpt>
      <trkpt lat="45.63722" lon="4.5934">
        <ele>920</ele>
        <time>2022-10-06T20:17:56Z</time>
      </trkpt>
      <trkpt lat="45.63716" lon="4.59319">
        <ele>918</ele>
        <time>2022-10-06T20:18:17Z</time>
      </trkpt>
      <trkpt lat="45.637" lon="4.59288">
        <ele>913</ele>
        <time>2022-10-06T20:18:53Z</time>
      </trkpt>
      <trkpt lat="45.63687" lon="4.59261">
        <ele>908</ele>
        <time>2022-10-06T20:19:23Z</time>
      </trkpt>
      <trkpt lat="45.63686" lon="4.59236">
        <ele>907</ele>
        <time>2022-10-06T20:19:47Z</time>
      </trkpt>
      <trkpt lat="45.63683" lon="4.59226">
        <ele>905</ele>
        <time>2022-10-06T20:19:57Z</time>
      </trkpt>
      <trkpt lat="45.63672" lon="4.59208">
        <ele>901</ele>
        <time>2022-10-06T20:20:19Z</time>
      </trkpt>
      <trkpt lat="45.63662" lon="4.59187">
        <ele>897</ele>
        <time>2022-10-06T20:20:43Z</time>
      </trkpt>
      <trkpt lat="45.63656" lon="4.59177">
        <ele>895</ele>
        <time>2022-10-06T20:20:55Z</time>
      </trkpt>
      <trkpt lat="45.63654" lon="4.59178">
        <ele>895</ele>
        <time>2022-10-06T20:20:58Z</time>
      </trkpt>
      <trkpt lat="45.63647" lon="4.59183">
        <ele>893</ele>
        <time>2022-10-06T20:21:08Z</time>
      </trkpt>
      <trkpt lat="45.63607" lon="4.59226">
        <ele>887</ele>
        <time>2022-10-06T20:22:15Z</time>
      </trkpt>
      <trkpt lat="45.6358" lon="4.59255">
        <ele>882</ele>
        <time>2022-10-06T20:23:00Z</time>
      </trkpt>
      <trkpt lat="45.63566" lon="4.5928">
        <ele>878</ele>
        <time>2022-10-06T20:23:30Z</time>
      </trkpt>
      <trkpt lat="45.63542" lon="4.59344">
        <ele>869</ele>
        <time>2022-10-06T20:24:38Z</time>
      </trkpt>
      <trkpt lat="45.63531" lon="4.59375">
        <ele>864</ele>
        <time>2022-10-06T20:25:10Z</time>
      </trkpt>
      <trkpt lat="45.63515" lon="4.59405">
        <ele>858</ele>
        <time>2022-10-06T20:25:46Z</time>
      </trkpt>
      <trkpt lat="45.63511" lon="4.59417">
        <ele>857</ele>
        <time>2022-10-06T20:25:58Z</time>
      </trkpt>
      <trkpt lat="45.63507" lon="4.59421">
        <ele>856</ele>
        <time>2022-10-06T20:26:05Z</time>
      </trkpt>
      <trkpt lat="45.63506" lon="4.59444">
        <ele>856</ele>
        <time>2022-10-06T20:26:26Z</time>
      </trkpt>
      <trkpt lat="45.63503" lon="4.59464">
        <ele>855</ele>
        <time>2022-10-06T20:26:45Z</time>
      </trkpt>
      <trkpt lat="45.63512" lon="4.59477">
        <ele>857</ele>
        <time>2022-10-06T20:27:02Z</time>
      </trkpt>
      <trkpt lat="45.63517" lon="4.59513">
        <ele>858</ele>
        <time>2022-10-06T20:27:36Z</time>
      </trkpt>
      <trkpt lat="45.63525" lon="4.59569">
        <ele>859</ele>
        <time>2022-10-06T20:28:30Z</time>
      </trkpt>
      <trkpt lat="45.63533" lon="4.59587">
        <ele>860</ele>
        <time>2022-10-06T20:28:50Z</time>
      </trkpt>
      <trkpt lat="45.63539" lon="4.59594">
        <ele>861</ele>
        <time>2022-10-06T20:29:00Z</time>
      </trkpt>
      <trkpt lat="45.63557" lon="4.59618">
        <ele>862</ele>
        <time>2022-10-06T20:29:33Z</time>
      </trkpt>
      <trkpt lat="45.63562" lon="4.59633">
        <ele>862</ele>
        <time>2022-10-06T20:29:48Z</time>
      </trkpt>
      <trkpt lat="45.63571" lon="4.59663">
        <ele>861</ele>
        <time>2022-10-06T20:30:19Z</time>
      </trkpt>
      <trkpt lat="45.63575" lon="4.59674">
        <ele>861</ele>
        <time>2022-10-06T20:30:30Z</time>
      </trkpt>
      <trkpt lat="45.63597" lon="4.59697">
        <ele>860</ele>
        <time>2022-10-06T20:31:07Z</time>
      </trkpt>
      <trkpt lat="45.63598" lon="4.59697">
        <ele>860</ele>
        <time>2022-10-06T20:31:08Z</time>
      </trkpt>
      <trkpt lat="45.63608" lon="4.59731">
        <ele>857</ele>
        <time>2022-10-06T20:31:42Z</time>
      </trkpt>
      <trkpt lat="45.6361" lon="4.59738">
        <ele>857</ele>
        <time>2022-10-06T20:31:50Z</time>
      </trkpt>
      <trkpt lat="45.63616" lon="4.59807">
        <ele>854</ele>
        <time>2022-10-06T20:32:54Z</time>
      </trkpt>
      <trkpt lat="45.63634" lon="4.59889">
        <ele>851</ele>
        <time>2022-10-06T20:34:15Z</time>
      </trkpt>
      <trkpt lat="45.63644" lon="4.59905">
        <ele>850</ele>
        <time>2022-10-06T20:34:35Z</time>
      </trkpt>
      <trkpt lat="45.63665" lon="4.59937">
        <ele>846</ele>
        <time>2022-10-06T20:35:16Z</time>
      </trkpt>
      <trkpt lat="45.63681" lon="4.59954">
        <ele>843</ele>
        <time>2022-10-06T20:35:42Z</time>
      </trkpt>
      <trkpt lat="45.63706" lon="4.59999">
        <ele>842</ele>
        <time>2022-10-06T20:36:36Z</time>
      </trkpt>
      <trkpt lat="45.63717" lon="4.60018">
        <ele>841</ele>
        <time>2022-10-06T20:36:59Z</time>
      </trkpt>
      <trkpt lat="45.63741" lon="4.60045">
        <ele>838</ele>
        <time>2022-10-06T20:37:40Z</time>
      </trkpt>
      <trkpt lat="45.63766" lon="4.601">
        <ele>833</ele>
        <time>2022-10-06T20:38:41Z</time>
      </trkpt>
      <trkpt lat="45.63774" lon="4.60118">
        <ele>830</ele>
        <time>2022-10-06T20:39:01Z</time>
      </trkpt>
      <trkpt lat="45.63786" lon="4.60134">
        <ele>826</ele>
        <time>2022-10-06T20:39:23Z</time>
      </trkpt>
      <trkpt lat="45.63795" lon="4.60156">
        <ele>823</ele>
        <time>2022-10-06T20:39:46Z</time>
      </trkpt>
      <trkpt lat="45.63802" lon="4.60154">
        <ele>822</ele>
        <time>2022-10-06T20:39:56Z</time>
      </trkpt>
      <trkpt lat="45.63808" lon="4.60153">
        <ele>821</ele>
        <time>2022-10-06T20:40:04Z</time>
      </trkpt>
      <trkpt lat="45.63817" lon="4.60162">
        <ele>819</ele>
        <time>2022-10-06T20:40:19Z</time>
      </trkpt>
      <trkpt lat="45.63836" lon="4.6022">
        <ele>810</ele>
        <time>2022-10-06T20:41:18Z</time>
      </trkpt>
      <trkpt lat="45.63848" lon="4.60249">
        <ele>806</ele>
        <time>2022-10-06T20:41:50Z</time>
      </trkpt>
      <trkpt lat="45.63857" lon="4.6026">
        <ele>804</ele>
        <time>2022-10-06T20:42:06Z</time>
      </trkpt>
      <trkpt lat="45.63902" lon="4.60309">
        <ele>797</ele>
        <time>2022-10-06T20:43:21Z</time>
      </trkpt>
      <trkpt lat="45.63923" lon="4.6033">
        <ele>796</ele>
        <time>2022-10-06T20:43:55Z</time>
      </trkpt>
      <trkpt lat="45.63933" lon="4.6035">
        <ele>794</ele>
        <time>2022-10-06T20:44:18Z</time>
      </trkpt>
      <trkpt lat="45.63945" lon="4.60368">
        <ele>792</ele>
        <time>2022-10-06T20:44:41Z</time>
      </trkpt>
      <trkpt lat="45.6397" lon="4.60383">
        <ele>791</ele>
        <time>2022-10-06T20:45:18Z</time>
      </trkpt>
      <trkpt lat="45.63994" lon="4.60402">
        <ele>790</ele>
        <time>2022-10-06T20:45:54Z</time>
      </trkpt>
      <trkpt lat="45.64013" lon="4.6041">
        <ele>789</ele>
        <time>2022-10-06T20:46:21Z</time>
      </trkpt>
      <trkpt lat="45.64024" lon="4.60421">
        <ele>788</ele>
        <time>2022-10-06T20:46:39Z</time>
      </trkpt>
      <trkpt lat="45.64045" lon="4.60442">
        <ele>783</ele>
        <time>2022-10-06T20:47:13Z</time>
      </trkpt>
      <trkpt lat="45.64056" lon="4.6046">
        <ele>781</ele>
        <time>2022-10-06T20:47:35Z</time>
      </trkpt>
      <trkpt lat="45.64064" lon="4.60485">
        <ele>778</ele>
        <time>2022-10-06T20:48:01Z</time>
      </trkpt>
      <trkpt lat="45.64063" lon="4.60493">
        <ele>778</ele>
        <time>2022-10-06T20:48:08Z</time>
      </trkpt>
      <trkpt lat="45.64061" lon="4.60506">
        <ele>775</ele>
        <time>2022-10-06T20:48:21Z</time>
      </trkpt>
      <trkpt lat="45.64047" lon="4.60517">
        <ele>772</ele>
        <time>2022-10-06T20:48:42Z</time>
      </trkpt>
      <trkpt lat="45.64026" lon="4.60525">
        <ele>768</ele>
        <time>2022-10-06T20:49:11Z</time>
      </trkpt>
      <trkpt lat="45.64022" lon="4.60524">
        <ele>768</ele>
        <time>2022-10-06T20:49:16Z</time>
      </trkpt>
      <trkpt lat="45.64" lon="4.60519">
        <ele>768</ele>
        <time>2022-10-06T20:49:46Z</time>
      </trkpt>
      <trkpt lat="45.63987" lon="4.60524">
        <ele>766</ele>
        <time>2022-10-06T20:50:04Z</time>
      </trkpt>
      <trkpt lat="45.63974" lon="4.60537">
        <ele>761</ele>
        <time>2022-10-06T20:50:25Z</time>
      </trkpt>
      <trkpt lat="45.63967" lon="4.60542">
        <ele>759</ele>
        <time>2022-10-06T20:50:36Z</time>
      </trkpt>
      <trkpt lat="45.63894" lon="4.60579">
        <ele>744</ele>
        <time>2022-10-06T20:52:19Z</time>
      </trkpt>
      <trkpt lat="45.63853" lon="4.60595">
        <ele>738</ele>
        <time>2022-10-06T20:53:16Z</time>
      </trkpt>
      <trkpt lat="45.63826" lon="4.60598">
        <ele>737</ele>
        <time>2022-10-06T20:53:52Z</time>
      </trkpt>
      <trkpt lat="45.63802" lon="4.60614">
        <ele>735</ele>
        <time>2022-10-06T20:54:27Z</time>
      </trkpt>
      <trkpt lat="45.63785" lon="4.60646">
        <ele>732</ele>
        <time>2022-10-06T20:55:05Z</time>
      </trkpt>
      <trkpt lat="45.63773" lon="4.60682">
        <ele>729</ele>
        <time>2022-10-06T20:55:42Z</time>
      </trkpt>
      <trkpt lat="45.63775" lon="4.60719">
        <ele>724</ele>
        <time>2022-10-06T20:56:17Z</time>
      </trkpt>
      <trkpt lat="45.63779" lon="4.60756">
        <ele>719</ele>
        <time>2022-10-06T20:56:52Z</time>
      </trkpt>
      <trkpt lat="45.63795" lon="4.6088">
        <ele>696</ele>
        <time>2022-10-06T20:58:49Z</time>
      </trkpt>
      <trkpt lat="45.63804" lon="4.60944">
        <ele>687</ele>
        <time>2022-10-06T20:59:50Z</time>
      </trkpt>
      <trkpt lat="45.63811" lon="4.60969">
        <ele>682</ele>
        <time>2022-10-06T21:00:15Z</time>
      </trkpt>
      <trkpt lat="45.63812" lon="4.60984">
        <ele>680</ele>
        <time>2022-10-06T21:00:29Z</time>
      </trkpt>
      <trkpt lat="45.63815" lon="4.61014">
        <ele>677</ele>
        <time>2022-10-06T21:00:58Z</time>
      </trkpt>
      <trkpt lat="45.63823" lon="4.61043">
        <ele>673</ele>
        <time>2022-10-06T21:01:27Z</time>
      </trkpt>
      <trkpt lat="45.6384" lon="4.61097">
        <ele>666</ele>
        <time>2022-10-06T21:02:22Z</time>
      </trkpt>
      <trkpt lat="45.6385" lon="4.61123">
        <ele>664</ele>
        <time>2022-10-06T21:02:50Z</time>
      </trkpt>
      <trkpt lat="45.63861" lon="4.61134">
        <ele>660</ele>
        <time>2022-10-06T21:03:07Z</time>
      </trkpt>
      <trkpt lat="45.63874" lon="4.61135">
        <ele>656</ele>
        <time>2022-10-06T21:03:25Z</time>
      </trkpt>
      <trkpt lat="45.63874" lon="4.61133">
        <ele>656</ele>
        <time>2022-10-06T21:03:27Z</time>
      </trkpt>
      <trkpt lat="45.63868" lon="4.611">
        <ele>657</ele>
        <time>2022-10-06T21:03:59Z</time>
      </trkpt>
      <trkpt lat="45.63871" lon="4.61087">
        <ele>655</ele>
        <time>2022-10-06T21:04:11Z</time>
      </trkpt>
      <trkpt lat="45.63881" lon="4.61086">
        <ele>652</ele>
        <time>2022-10-06T21:04:25Z</time>
      </trkpt>
      <trkpt lat="45.63883" lon="4.61092">
        <ele>652</ele>
        <time>2022-10-06T21:04:31Z</time>
      </trkpt>
      <trkpt lat="45.6391" lon="4.61165">
        <ele>646</ele>
        <time>2022-10-06T21:05:48Z</time>
      </trkpt>
      <trkpt lat="45.6392" lon="4.61192">
        <ele>641</ele>
        <time>2022-10-06T21:06:16Z</time>
      </trkpt>
      <trkpt lat="45.63919" lon="4.6122">
        <ele>640</ele>
        <time>2022-10-06T21:06:43Z</time>
      </trkpt>
      <trkpt lat="45.63919" lon="4.61226">
        <ele>640</ele>
        <time>2022-10-06T21:06:48Z</time>
      </trkpt>
      <trkpt lat="45.63898" lon="4.61309">
        <ele>635</ele>
        <time>2022-10-06T21:08:11Z</time>
      </trkpt>
      <trkpt lat="45.6389" lon="4.61338">
        <ele>632</ele>
        <time>2022-10-06T21:08:40Z</time>
      </trkpt>
      <trkpt lat="45.63881" lon="4.61366">
        <ele>630</ele>
        <time>2022-10-06T21:09:08Z</time>
      </trkpt>
      <trkpt lat="45.6388" lon="4.61378">
        <ele>629</ele>
        <time>2022-10-06T21:09:20Z</time>
      </trkpt>
      <trkpt lat="45.63879" lon="4.61398">
        <ele>627</ele>
        <time>2022-10-06T21:09:38Z</time>
      </trkpt>
      <trkpt lat="45.6388" lon="4.6144">
        <ele>625</ele>
        <time>2022-10-06T21:10:18Z</time>
      </trkpt>
      <trkpt lat="45.6388" lon="4.61439">
        <ele>625</ele>
        <time>2022-10-06T21:10:19Z</time>
      </trkpt>
      <trkpt lat="45.6388" lon="4.6144">
        <ele>625</ele>
        <time>2022-10-06T21:10:19Z</time>
      </trkpt>
      <trkpt lat="45.63884" lon="4.61498">
        <ele>625</ele>
        <time>2022-10-06T21:11:14Z</time>
      </trkpt>
      <trkpt lat="45.63883" lon="4.61492">
        <ele>625</ele>
        <time>2022-10-06T21:11:20Z</time>
      </trkpt>
      <trkpt lat="45.6387" lon="4.615">
        <ele>624</ele>
        <time>2022-10-06T21:11:38Z</time>
      </trkpt>
      <trkpt lat="45.6385" lon="4.61521">
        <ele>622</ele>
        <time>2022-10-06T21:12:12Z</time>
      </trkpt>
      <trkpt lat="45.63811" lon="4.6157">
        <ele>616</ele>
        <time>2022-10-06T21:13:21Z</time>
      </trkpt>
      <trkpt lat="45.63798" lon="4.61578">
        <ele>613</ele>
        <time>2022-10-06T21:13:40Z</time>
      </trkpt>
      <trkpt lat="45.63794" lon="4.61592">
        <ele>612</ele>
        <time>2022-10-06T21:13:54Z</time>
      </trkpt>
      <trkpt lat="45.63793" lon="4.61596">
        <ele>611</ele>
        <time>2022-10-06T21:13:58Z</time>
      </trkpt>
      <trkpt lat="45.63779" lon="4.61568">
        <ele>609</ele>
        <time>2022-10-06T21:14:30Z</time>
      </trkpt>
      <trkpt lat="45.63768" lon="4.61528">
        <ele>607</ele>
        <time>2022-10-06T21:15:10Z</time>
      </trkpt>
      <trkpt lat="45.63765" lon="4.61511">
        <ele>606</ele>
        <time>2022-10-06T21:15:26Z</time>
      </trkpt>
      <trkpt lat="45.63749" lon="4.61481">
        <ele>607</ele>
        <time>2022-10-06T21:16:02Z</time>
      </trkpt>
      <trkpt lat="45.63739" lon="4.61471">
        <ele>608</ele>
        <time>2022-10-06T21:16:18Z</time>
      </trkpt>
      <trkpt lat="45.63712" lon="4.61473">
        <ele>605</ele>
        <time>2022-10-06T21:16:54Z</time>
      </trkpt>
      <trkpt lat="45.63641" lon="4.61508">
        <ele>591</ele>
        <time>2022-10-06T21:18:34Z</time>
      </trkpt>
      <trkpt lat="45.63633" lon="4.61507">
        <ele>591</ele>
        <time>2022-10-06T21:18:45Z</time>
      </trkpt>
      <trkpt lat="45.63611" lon="4.61471">
        <ele>595</ele>
        <time>2022-10-06T21:19:30Z</time>
      </trkpt>
      <trkpt lat="45.636" lon="4.61462">
        <ele>595</ele>
        <time>2022-10-06T21:19:46Z</time>
      </trkpt>
      <trkpt lat="45.63598" lon="4.6146">
        <ele>595</ele>
        <time>2022-10-06T21:19:50Z</time>
      </trkpt>
      <trkpt lat="45.63571" lon="4.61454">
        <ele>596</ele>
        <time>2022-10-06T21:20:26Z</time>
      </trkpt>
      <trkpt lat="45.63532" lon="4.61466">
        <ele>600</ele>
        <time>2022-10-06T21:21:19Z</time>
      </trkpt>
      <trkpt lat="45.63527" lon="4.6147">
        <ele>601</ele>
        <time>2022-10-06T21:21:27Z</time>
      </trkpt>
      <trkpt lat="45.63501" lon="4.61537">
        <ele>595</ele>
        <time>2022-10-06T21:22:39Z</time>
      </trkpt>
      <trkpt lat="45.63492" lon="4.61554">
        <ele>594</ele>
        <time>2022-10-06T21:22:58Z</time>
      </trkpt>
      <trkpt lat="45.63481" lon="4.61573">
        <ele>593</ele>
        <time>2022-10-06T21:23:21Z</time>
      </trkpt>
      <trkpt lat="45.63468" lon="4.61586">
        <ele>593</ele>
        <time>2022-10-06T21:23:43Z</time>
      </trkpt>
      <trkpt lat="45.63447" lon="4.61591">
        <ele>595</ele>
        <time>2022-10-06T21:24:11Z</time>
      </trkpt>
      <trkpt lat="45.63422" lon="4.6159">
        <ele>598</ele>
        <time>2022-10-06T21:24:44Z</time>
      </trkpt>
      <trkpt lat="45.63402" lon="4.6158">
        <ele>599</ele>
        <time>2022-10-06T21:25:13Z</time>
      </trkpt>
      <trkpt lat="45.63363" lon="4.61547">
        <ele>602</ele>
        <time>2022-10-06T21:26:13Z</time>
      </trkpt>
      <trkpt lat="45.63335" lon="4.61518">
        <ele>604</ele>
        <time>2022-10-06T21:26:59Z</time>
      </trkpt>
      <trkpt lat="45.63306" lon="4.61499">
        <ele>606</ele>
        <time>2022-10-06T21:27:42Z</time>
      </trkpt>
      <trkpt lat="45.63289" lon="4.61507">
        <ele>604</ele>
        <time>2022-10-06T21:28:06Z</time>
      </trkpt>
      <trkpt lat="45.63257" lon="4.61543">
        <ele>596</ele>
        <time>2022-10-06T21:29:00Z</time>
      </trkpt>
      <trkpt lat="45.63202" lon="4.61638">
        <ele>581</ele>
        <time>2022-10-06T21:30:55Z</time>
      </trkpt>
      <trkpt lat="45.63191" lon="4.6165">
        <ele>580</ele>
        <time>2022-10-06T21:31:14Z</time>
      </trkpt>
      <trkpt lat="45.63189" lon="4.61653">
        <ele>580</ele>
        <time>2022-10-06T21:31:17Z</time>
      </trkpt>
      <trkpt lat="45.63181" lon="4.6166">
        <ele>579</ele>
        <time>2022-10-06T21:31:30Z</time>
      </trkpt>
      <trkpt lat="45.6316" lon="4.61662">
        <ele>578</ele>
        <time>2022-10-06T21:31:58Z</time>
      </trkpt>
      <trkpt lat="45.63154" lon="4.61663">
        <ele>577</ele>
        <time>2022-10-06T21:32:06Z</time>
      </trkpt>
      <trkpt lat="45.63151" lon="4.61676">
        <ele>576</ele>
        <time>2022-10-06T21:32:19Z</time>
      </trkpt>
      <trkpt lat="45.63146" lon="4.61732">
        <ele>570</ele>
        <time>2022-10-06T21:33:12Z</time>
      </trkpt>
      <trkpt lat="45.63152" lon="4.6177">
        <ele>567</ele>
        <time>2022-10-06T21:33:48Z</time>
      </trkpt>
      <trkpt lat="45.6315" lon="4.6176">
        <ele>568</ele>
        <time>2022-10-06T21:33:58Z</time>
      </trkpt>
      <trkpt lat="45.63155" lon="4.61786">
        <ele>566</ele>
        <time>2022-10-06T21:34:23Z</time>
      </trkpt>
      <trkpt lat="45.63146" lon="4.61785">
        <ele>565</ele>
        <time>2022-10-06T21:34:35Z</time>
      </trkpt>
      <trkpt lat="45.63138" lon="4.61779">
        <ele>565</ele>
        <time>2022-10-06T21:34:47Z</time>
      </trkpt>
      <trkpt lat="45.63131" lon="4.61764">
        <ele>565</ele>
        <time>2022-10-06T21:35:04Z</time>
      </trkpt>
      <trkpt lat="45.63128" lon="4.61745">
        <ele>567</ele>
        <time>2022-10-06T21:35:22Z</time>
      </trkpt>
      <trkpt lat="45.63122" lon="4.61732">
        <ele>567</ele>
        <time>2022-10-06T21:35:36Z</time>
      </trkpt>
      <trkpt lat="45.63117" lon="4.61727">
        <ele>567</ele>
        <time>2022-10-06T21:35:45Z</time>
      </trkpt>
      <trkpt lat="45.63113" lon="4.61724">
        <ele>566</ele>
        <time>2022-10-06T21:35:51Z</time>
      </trkpt>
      <trkpt lat="45.63087" lon="4.61678">
        <ele>565</ele>
        <time>2022-10-06T21:36:46Z</time>
      </trkpt>
      <trkpt lat="45.63084" lon="4.61673">
        <ele>565</ele>
        <time>2022-10-06T21:36:52Z</time>
      </trkpt>
      <trkpt lat="45.63066" lon="4.61661">
        <ele>567</ele>
        <time>2022-10-06T21:37:18Z</time>
      </trkpt>
      <trkpt lat="45.63038" lon="4.61654">
        <ele>569</ele>
        <time>2022-10-06T21:37:56Z</time>
      </trkpt>
      <trkpt lat="45.63031" lon="4.61657">
        <ele>569</ele>
        <time>2022-10-06T21:38:06Z</time>
      </trkpt>
      <trkpt lat="45.63008" lon="4.61668">
        <ele>569</ele>
        <time>2022-10-06T21:38:39Z</time>
      </trkpt>
      <trkpt lat="45.62997" lon="4.61688">
        <ele>568</ele>
        <time>2022-10-06T21:39:02Z</time>
      </trkpt>
      <trkpt lat="45.62992" lon="4.61695">
        <ele>569</ele>
        <time>2022-10-06T21:39:12Z</time>
      </trkpt>
      <trkpt lat="45.62985" lon="4.6173">
        <ele>566</ele>
        <time>2022-10-06T21:39:46Z</time>
      </trkpt>
      <trkpt lat="45.62974" lon="4.61753">
        <ele>567</ele>
        <time>2022-10-06T21:40:12Z</time>
      </trkpt>
      <trkpt lat="45.6297" lon="4.61762">
        <ele>567</ele>
        <time>2022-10-06T21:40:22Z</time>
      </trkpt>
      <trkpt lat="45.62935" lon="4.61864">
        <ele>565</ele>
        <time>2022-10-06T21:42:08Z</time>
      </trkpt>
      <trkpt lat="45.62932" lon="4.61867">
        <ele>566</ele>
        <time>2022-10-06T21:42:12Z</time>
      </trkpt>
      <trkpt lat="45.62907" lon="4.61902">
        <ele>568</ele>
        <time>2022-10-06T21:42:59Z</time>
      </trkpt>
      <trkpt lat="45.62887" lon="4.61943">
        <ele>569</ele>
        <time>2022-10-06T21:43:46Z</time>
      </trkpt>
      <trkpt lat="45.6288" lon="4.6195">
        <ele>569</ele>
        <time>2022-10-06T21:43:57Z</time>
      </trkpt>
      <trkpt lat="45.62866" lon="4.61962">
        <ele>572</ele>
        <time>2022-10-06T21:44:19Z</time>
      </trkpt>
      <trkpt lat="45.62838" lon="4.61976">
        <ele>577</ele>
        <time>2022-10-06T21:44:59Z</time>
      </trkpt>
      <trkpt lat="45.62866" lon="4.61962">
        <ele>572</ele>
        <time>2022-10-06T21:45:38Z</time>
      </trkpt>
      <trkpt lat="45.62884" lon="4.61946">
        <ele>569</ele>
        <time>2022-10-06T21:46:06Z</time>
      </trkpt>
      <trkpt lat="45.62866" lon="4.61962">
        <ele>572</ele>
        <time>2022-10-06T21:46:35Z</time>
      </trkpt>
      <trkpt lat="45.62837" lon="4.61977">
        <ele>577</ele>
        <time>2022-10-06T21:47:16Z</time>
      </trkpt>
      <trkpt lat="45.62822" lon="4.61976">
        <ele>579</ele>
        <time>2022-10-06T21:47:36Z</time>
      </trkpt>
      <trkpt lat="45.62792" lon="4.61957">
        <ele>584</ele>
        <time>2022-10-06T21:48:20Z</time>
      </trkpt>
      <trkpt lat="45.62781" lon="4.6195">
        <ele>586</ele>
        <time>2022-10-06T21:48:36Z</time>
      </trkpt>
      <trkpt lat="45.62733" lon="4.61903">
        <ele>596</ele>
        <time>2022-10-06T21:49:53Z</time>
      </trkpt>
      <trkpt lat="45.62722" lon="4.61892">
        <ele>596</ele>
        <time>2022-10-06T21:50:11Z</time>
      </trkpt>
      <trkpt lat="45.62701" lon="4.61835">
        <ele>600</ele>
        <time>2022-10-06T21:51:11Z</time>
      </trkpt>
      <trkpt lat="45.62681" lon="4.61771">
        <ele>605</ele>
        <time>2022-10-06T21:52:17Z</time>
      </trkpt>
      <trkpt lat="45.62669" lon="4.61731">
        <ele>609</ele>
        <time>2022-10-06T21:52:57Z</time>
      </trkpt>
      <trkpt lat="45.62641" lon="4.61672">
        <ele>609</ele>
        <time>2022-10-06T21:54:04Z</time>
      </trkpt>
      <trkpt lat="45.62632" lon="4.61651">
        <ele>610</ele>
        <time>2022-10-06T21:54:27Z</time>
      </trkpt>
      <trkpt lat="45.62637" lon="4.61613">
        <ele>617</ele>
        <time>2022-10-06T21:55:03Z</time>
      </trkpt>
      <trkpt lat="45.62636" lon="4.61606">
        <ele>618</ele>
        <time>2022-10-06T21:55:10Z</time>
      </trkpt>
      <trkpt lat="45.62635" lon="4.61597">
        <ele>619</ele>
        <time>2022-10-06T21:55:18Z</time>
      </trkpt>
      <trkpt lat="45.62623" lon="4.61582">
        <ele>619</ele>
        <time>2022-10-06T21:55:40Z</time>
      </trkpt>
      <trkpt lat="45.62616" lon="4.61578">
        <ele>619</ele>
        <time>2022-10-06T21:55:50Z</time>
      </trkpt>
      <trkpt lat="45.62589" lon="4.6154">
        <ele>624</ele>
        <time>2022-10-06T21:56:40Z</time>
      </trkpt>
      <trkpt lat="45.62586" lon="4.61538">
        <ele>624</ele>
        <time>2022-10-06T21:56:45Z</time>
      </trkpt>
      <trkpt lat="45.62576" lon="4.61533">
        <ele>625</ele>
        <time>2022-10-06T21:56:59Z</time>
      </trkpt>
      <trkpt lat="45.62541" lon="4.61534">
        <ele>627</ele>
        <time>2022-10-06T21:57:45Z</time>
      </trkpt>
      <trkpt lat="45.62533" lon="4.61534">
        <ele>627</ele>
        <time>2022-10-06T21:57:56Z</time>
      </trkpt>
      <trkpt lat="45.62474" lon="4.61569">
        <ele>618</ele>
        <time>2022-10-06T21:59:21Z</time>
      </trkpt>
      <trkpt lat="45.62458" lon="4.61576">
        <ele>617</ele>
        <time>2022-10-06T21:59:44Z</time>
      </trkpt>
      <trkpt lat="45.62433" lon="4.61594">
        <ele>614</ele>
        <time>2022-10-06T22:00:21Z</time>
      </trkpt>
      <trkpt lat="45.62415" lon="4.61598">
        <ele>614</ele>
        <time>2022-10-06T22:00:45Z</time>
      </trkpt>
      <trkpt lat="45.62364" lon="4.61589">
        <ele>615</ele>
        <time>2022-10-06T22:01:54Z</time>
      </trkpt>
      <trkpt lat="45.62349" lon="4.61578">
        <ele>618</ele>
        <time>2022-10-06T22:02:16Z</time>
      </trkpt>
      <trkpt lat="45.6232" lon="4.61555">
        <ele>622</ele>
        <time>2022-10-06T22:03:01Z</time>
      </trkpt>
      <trkpt lat="45.62318" lon="4.61547">
        <ele>624</ele>
        <time>2022-10-06T22:03:09Z</time>
      </trkpt>
      <trkpt lat="45.62314" lon="4.61533">
        <ele>627</ele>
        <time>2022-10-06T22:03:23Z</time>
      </trkpt>
      <trkpt lat="45.62308" lon="4.61517">
        <ele>630</ele>
        <time>2022-10-06T22:03:40Z</time>
      </trkpt>
      <trkpt lat="45.62296" lon="4.61498">
        <ele>634</ele>
        <time>2022-10-06T22:04:03Z</time>
      </trkpt>
      <trkpt lat="45.62287" lon="4.61488">
        <ele>635</ele>
        <time>2022-10-06T22:04:19Z</time>
      </trkpt>
      <trkpt lat="45.62281" lon="4.6147">
        <ele>638</ele>
        <time>2022-10-06T22:04:37Z</time>
      </trkpt>
      <trkpt lat="45.62258" lon="4.61438">
        <ele>643</ele>
        <time>2022-10-06T22:05:20Z</time>
      </trkpt>
      <trkpt lat="45.62239" lon="4.61419">
        <ele>645</ele>
        <time>2022-10-06T22:05:51Z</time>
      </trkpt>
      <trkpt lat="45.62225" lon="4.61412">
        <ele>645</ele>
        <time>2022-10-06T22:06:11Z</time>
      </trkpt>
      <trkpt lat="45.62202" lon="4.61398">
        <ele>645</ele>
        <time>2022-10-06T22:06:44Z</time>
      </trkpt>
      <trkpt lat="45.62187" lon="4.61378">
        <ele>648</ele>
        <time>2022-10-06T22:07:12Z</time>
      </trkpt>
      <trkpt lat="45.62177" lon="4.61357">
        <ele>651</ele>
        <time>2022-10-06T22:07:35Z</time>
      </trkpt>
      <trkpt lat="45.62179" lon="4.61357">
        <ele>651</ele>
        <time>2022-10-06T22:07:38Z</time>
      </trkpt>
      <trkpt lat="45.62163" lon="4.6135">
        <ele>650</ele>
        <time>2022-10-06T22:08:00Z</time>
      </trkpt>
      <trkpt lat="45.62144" lon="4.61332">
        <ele>652</ele>
        <time>2022-10-06T22:08:31Z</time>
      </trkpt>
      <trkpt lat="45.62103" lon="4.61286">
        <ele>663</ele>
        <time>2022-10-06T22:09:40Z</time>
      </trkpt>
      <trkpt lat="45.62069" lon="4.61253">
        <ele>670</ele>
        <time>2022-10-06T22:10:35Z</time>
      </trkpt>
      <trkpt lat="45.62056" lon="4.61244">
        <ele>671</ele>
        <time>2022-10-06T22:10:54Z</time>
      </trkpt>
      <trkpt lat="45.62032" lon="4.61218">
        <ele>674</ele>
        <time>2022-10-06T22:11:35Z</time>
      </trkpt>
      <trkpt lat="45.62025" lon="4.6121">
        <ele>675</ele>
        <time>2022-10-06T22:11:47Z</time>
      </trkpt>
      <trkpt lat="45.62" lon="4.61159">
        <ele>680</ele>
        <time>2022-10-06T22:12:45Z</time>
      </trkpt>
      <trkpt lat="45.61997" lon="4.61152">
        <ele>680</ele>
        <time>2022-10-06T22:12:52Z</time>
      </trkpt>
      <trkpt lat="45.61995" lon="4.61138">
        <ele>680</ele>
        <time>2022-10-06T22:13:06Z</time>
      </trkpt>
      <trkpt lat="45.61995" lon="4.61111">
        <ele>683</ele>
        <time>2022-10-06T22:13:31Z</time>
      </trkpt>
      <trkpt lat="45.62011" lon="4.61047">
        <ele>690</ele>
        <time>2022-10-06T22:14:34Z</time>
      </trkpt>
      <trkpt lat="45.62027" lon="4.60987">
        <ele>699</ele>
        <time>2022-10-06T22:15:34Z</time>
      </trkpt>
      <trkpt lat="45.62033" lon="4.60968">
        <ele>704</ele>
        <time>2022-10-06T22:15:54Z</time>
      </trkpt>
      <trkpt lat="45.62051" lon="4.60925">
        <ele>715</ele>
        <time>2022-10-06T22:16:40Z</time>
      </trkpt>
      <trkpt lat="45.62051" lon="4.6091">
        <ele>717</ele>
        <time>2022-10-06T22:16:54Z</time>
      </trkpt>
      <trkpt lat="45.62045" lon="4.60893">
        <ele>719</ele>
        <time>2022-10-06T22:17:12Z</time>
      </trkpt>
      <trkpt lat="45.62034" lon="4.60887">
        <ele>718</ele>
        <time>2022-10-06T22:17:28Z</time>
      </trkpt>
      <trkpt lat="45.62019" lon="4.60885">
        <ele>715</ele>
        <time>2022-10-06T22:17:48Z</time>
      </trkpt>
      <trkpt lat="45.62" lon="4.60887">
        <ele>710</ele>
        <time>2022-10-06T22:18:13Z</time>
      </trkpt>
      <trkpt lat="45.61984" lon="4.60892">
        <ele>709</ele>
        <time>2022-10-06T22:18:35Z</time>
      </trkpt>
      <trkpt lat="45.61976" lon="4.60891">
        <ele>709</ele>
        <time>2022-10-06T22:18:46Z</time>
      </trkpt>
      <trkpt lat="45.61951" lon="4.6089">
        <ele>710</ele>
        <time>2022-10-06T22:19:19Z</time>
      </trkpt>
      <trkpt lat="45.61928" lon="4.60878">
        <ele>716</ele>
        <time>2022-10-06T22:19:52Z</time>
      </trkpt>
      <trkpt lat="45.61892" lon="4.60859">
        <ele>727</ele>
        <time>2022-10-06T22:20:43Z</time>
      </trkpt>
      <trkpt lat="45.61865" lon="4.60853">
        <ele>732</ele>
        <time>2022-10-06T22:21:20Z</time>
      </trkpt>
      <trkpt lat="45.61861" lon="4.60854">
        <ele>731</ele>
        <time>2022-10-06T22:21:25Z</time>
      </trkpt>
      <trkpt lat="45.61827" lon="4.60861">
        <ele>731</ele>
        <time>2022-10-06T22:22:11Z</time>
      </trkpt>
      <trkpt lat="45.61813" lon="4.6085">
        <ele>734</ele>
        <time>2022-10-06T22:22:32Z</time>
      </trkpt>
      <trkpt lat="45.61794" lon="4.60825">
        <ele>740</ele>
        <time>2022-10-06T22:23:07Z</time>
      </trkpt>
      <trkpt lat="45.61784" lon="4.60809">
        <ele>744</ele>
        <time>2022-10-06T22:23:27Z</time>
      </trkpt>
      <trkpt lat="45.61781" lon="4.60794">
        <ele>747</ele>
        <time>2022-10-06T22:23:41Z</time>
      </trkpt>
      <trkpt lat="45.61781" lon="4.6078">
        <ele>751</ele>
        <time>2022-10-06T22:23:54Z</time>
      </trkpt>
      <trkpt lat="45.61782" lon="4.6076">
        <ele>756</ele>
        <time>2022-10-06T22:24:13Z</time>
      </trkpt>
      <trkpt lat="45.61775" lon="4.60754">
        <ele>757</ele>
        <time>2022-10-06T22:24:24Z</time>
      </trkpt>
      <trkpt lat="45.61731" lon="4.60742">
        <ele>757</ele>
        <time>2022-10-06T22:25:24Z</time>
      </trkpt>
      <trkpt lat="45.61721" lon="4.6075">
        <ele>754</ele>
        <time>2022-10-06T22:25:39Z</time>
      </trkpt>
      <trkpt lat="45.61711" lon="4.60758">
        <ele>751</ele>
        <time>2022-10-06T22:25:54Z</time>
      </trkpt>
      <trkpt lat="45.61683" lon="4.60764">
        <ele>748</ele>
        <time>2022-10-06T22:26:32Z</time>
      </trkpt>
      <trkpt lat="45.61652" lon="4.60759">
        <ele>745</ele>
        <time>2022-10-06T22:27:14Z</time>
      </trkpt>
      <trkpt lat="45.61644" lon="4.60758">
        <ele>744</ele>
        <time>2022-10-06T22:27:25Z</time>
      </trkpt>
      <trkpt lat="45.61606" lon="4.60711">
        <ele>748</ele>
        <time>2022-10-06T22:28:32Z</time>
      </trkpt>
      <trkpt lat="45.61575" lon="4.60672">
        <ele>751</ele>
        <time>2022-10-06T22:29:27Z</time>
      </trkpt>
      <trkpt lat="45.61544" lon="4.60641">
        <ele>752</ele>
        <time>2022-10-06T22:30:17Z</time>
      </trkpt>
      <trkpt lat="45.61475" lon="4.60576">
        <ele>759</ele>
        <time>2022-10-06T22:32:07Z</time>
      </trkpt>
      <trkpt lat="45.61473" lon="4.60576">
        <ele>759</ele>
        <time>2022-10-06T22:32:10Z</time>
      </trkpt>
      <trkpt lat="45.61451" lon="4.60584">
        <ele>755</ele>
        <time>2022-10-06T22:32:40Z</time>
      </trkpt>
      <trkpt lat="45.6143" lon="4.60584">
        <ele>754</ele>
        <time>2022-10-06T22:33:08Z</time>
      </trkpt>
      <trkpt lat="45.61402" lon="4.60578">
        <ele>753</ele>
        <time>2022-10-06T22:33:46Z</time>
      </trkpt>
      <trkpt lat="45.61369" lon="4.60571">
        <ele>750</ele>
        <time>2022-10-06T22:34:31Z</time>
      </trkpt>
      <trkpt lat="45.6135" lon="4.60564">
        <ele>749</ele>
        <time>2022-10-06T22:34:57Z</time>
      </trkpt>
      <trkpt lat="45.61341" lon="4.60561">
        <ele>748</ele>
        <time>2022-10-06T22:35:09Z</time>
      </trkpt>
      <trkpt lat="45.61323" lon="4.60542">
        <ele>747</ele>
        <time>2022-10-06T22:35:39Z</time>
      </trkpt>
      <trkpt lat="45.6131" lon="4.60524">
        <ele>746</ele>
        <time>2022-10-06T22:36:03Z</time>
      </trkpt>
      <trkpt lat="45.61304" lon="4.60515">
        <ele>745</ele>
        <time>2022-10-06T22:36:15Z</time>
      </trkpt>
      <trkpt lat="45.61297" lon="4.60464">
        <ele>745</ele>
        <time>2022-10-06T22:37:03Z</time>
      </trkpt>
      <trkpt lat="45.61293" lon="4.60406">
        <ele>747</ele>
        <time>2022-10-06T22:37:58Z</time>
      </trkpt>
      <trkpt lat="45.61293" lon="4.60401">
        <ele>748</ele>
        <time>2022-10-06T22:38:02Z</time>
      </trkpt>
      <trkpt lat="45.6128" lon="4.60373">
        <ele>747</ele>
        <time>2022-10-06T22:38:34Z</time>
      </trkpt>
      <trkpt lat="45.61273" lon="4.60366">
        <ele>745</ele>
        <time>2022-10-06T22:38:45Z</time>
      </trkpt>
      <trkpt lat="45.61256" lon="4.60349">
        <ele>742</ele>
        <time>2022-10-06T22:39:13Z</time>
      </trkpt>
      <trkpt lat="45.61239" lon="4.60324">
        <ele>741</ele>
        <time>2022-10-06T22:39:45Z</time>
      </trkpt>
      <trkpt lat="45.61206" lon="4.60276">
        <ele>740</ele>
        <time>2022-10-06T22:40:48Z</time>
      </trkpt>
      <trkpt lat="45.61188" lon="4.60209">
        <ele>744</ele>
        <time>2022-10-06T22:41:55Z</time>
      </trkpt>
      <trkpt lat="45.61175" lon="4.60106">
        <ele>754</ele>
        <time>2022-10-06T22:43:33Z</time>
      </trkpt>
      <trkpt lat="45.61175" lon="4.60081">
        <ele>757</ele>
        <time>2022-10-06T22:43:56Z</time>
      </trkpt>
      <trkpt lat="45.6117" lon="4.60065">
        <ele>759</ele>
        <time>2022-10-06T22:44:13Z</time>
      </trkpt>
      <trkpt lat="45.61169" lon="4.60061">
        <ele>759</ele>
        <time>2022-10-06T22:44:17Z</time>
      </trkpt>
      <trkpt lat="45.61115" lon="4.60034">
        <ele>758</ele>
        <time>2022-10-06T22:45:33Z</time>
      </trkpt>
      <trkpt lat="45.61097" lon="4.60025">
        <ele>759</ele>
        <time>2022-10-06T22:45:58Z</time>
      </trkpt>
      <trkpt lat="45.61047" lon="4.59973">
        <ele>758</ele>
        <time>2022-10-06T22:47:21Z</time>
      </trkpt>
      <trkpt lat="45.61029" lon="4.59943">
        <ele>756</ele>
        <time>2022-10-06T22:47:58Z</time>
      </trkpt>
      <trkpt lat="45.61021" lon="4.5993">
        <ele>756</ele>
        <time>2022-10-06T22:48:14Z</time>
      </trkpt>
      <trkpt lat="45.61013" lon="4.59904">
        <ele>755</ele>
        <time>2022-10-06T22:48:41Z</time>
      </trkpt>
      <trkpt lat="45.61012" lon="4.5988">
        <ele>755</ele>
        <time>2022-10-06T22:49:03Z</time>
      </trkpt>
      <trkpt lat="45.61018" lon="4.59851">
        <ele>757</ele>
        <time>2022-10-06T22:49:31Z</time>
      </trkpt>
      <trkpt lat="45.61017" lon="4.59846">
        <ele>757</ele>
        <time>2022-10-06T22:49:36Z</time>
      </trkpt>
      <trkpt lat="45.61017" lon="4.59841">
        <ele>757</ele>
        <time>2022-10-06T22:49:41Z</time>
      </trkpt>
      <trkpt lat="45.61026" lon="4.59813">
        <ele>760</ele>
        <time>2022-10-06T22:50:09Z</time>
      </trkpt>
      <trkpt lat="45.61027" lon="4.59803">
        <ele>761</ele>
        <time>2022-10-06T22:50:19Z</time>
      </trkpt>
      <trkpt lat="45.61027" lon="4.59794">
        <ele>762</ele>
        <time>2022-10-06T22:50:27Z</time>
      </trkpt>
      <trkpt lat="45.61022" lon="4.59779">
        <ele>763</ele>
        <time>2022-10-06T22:50:43Z</time>
      </trkpt>
      <trkpt lat="45.6099" lon="4.59769">
        <ele>761</ele>
        <time>2022-10-06T22:51:27Z</time>
      </trkpt>
      <trkpt lat="45.60979" lon="4.5976">
        <ele>761</ele>
        <time>2022-10-06T22:51:43Z</time>
      </trkpt>
      <trkpt lat="45.60932" lon="4.59638">
        <ele>767</ele>
        <time>2022-10-06T22:53:53Z</time>
      </trkpt>
      <trkpt lat="45.60929" lon="4.59628">
        <ele>767</ele>
        <time>2022-10-06T22:54:04Z</time>
      </trkpt>
      <trkpt lat="45.60904" lon="4.59605">
        <ele>766</ele>
        <time>2022-10-06T22:54:43Z</time>
      </trkpt>
      <trkpt lat="45.60898" lon="4.59596">
        <ele>765</ele>
        <time>2022-10-06T22:54:55Z</time>
      </trkpt>
      <trkpt lat="45.60892" lon="4.59586">
        <ele>765</ele>
        <time>2022-10-06T22:55:07Z</time>
      </trkpt>
      <trkpt lat="45.60876" lon="4.59551">
        <ele>764</ele>
        <time>2022-10-06T22:55:46Z</time>
      </trkpt>
      <trkpt lat="45.60871" lon="4.59526">
        <ele>763</ele>
        <time>2022-10-06T22:56:11Z</time>
      </trkpt>
      <trkpt lat="45.60866" lon="4.59483">
        <ele>763</ele>
        <time>2022-10-06T22:56:51Z</time>
      </trkpt>
      <trkpt lat="45.60867" lon="4.59451">
        <ele>763</ele>
        <time>2022-10-06T22:57:21Z</time>
      </trkpt>
      <trkpt lat="45.60867" lon="4.59441">
        <ele>763</ele>
        <time>2022-10-06T22:57:30Z</time>
      </trkpt>
      <trkpt lat="45.60881" lon="4.59369">
        <ele>766</ele>
        <time>2022-10-06T22:58:40Z</time>
      </trkpt>
      <trkpt lat="45.60883" lon="4.59356">
        <ele>766</ele>
        <time>2022-10-06T22:58:53Z</time>
      </trkpt>
      <trkpt lat="45.6089" lon="4.59267">
        <ele>769</ele>
        <time>2022-10-06T23:00:16Z</time>
      </trkpt>
      <trkpt lat="45.60899" lon="4.5916">
        <ele>771</ele>
        <time>2022-10-06T23:01:57Z</time>
      </trkpt>
      <trkpt lat="45.609" lon="4.59163">
        <ele>771</ele>
        <time>2022-10-06T23:02:00Z</time>
      </trkpt>
      <trkpt lat="45.60881" lon="4.59102">
        <ele>771</ele>
        <time>2022-10-06T23:03:02Z</time>
      </trkpt>
      <trkpt lat="45.60871" lon="4.59074">
        <ele>770</ele>
        <time>2022-10-06T23:03:32Z</time>
      </trkpt>
      <trkpt lat="45.60853" lon="4.59032">
        <ele>768</ele>
        <time>2022-10-06T23:04:18Z</time>
      </trkpt>
      <trkpt lat="45.60849" lon="4.59026">
        <ele>768</ele>
        <time>2022-10-06T23:04:25Z</time>
      </trkpt>
      <trkpt lat="45.60853" lon="4.59032">
        <ele>768</ele>
        <time>2022-10-06T23:04:33Z</time>
      </trkpt>
      <trkpt lat="45.60879" lon="4.59023">
        <ele>771</ele>
        <time>2022-10-06T23:05:09Z</time>
      </trkpt>
      <trkpt lat="45.60897" lon="4.59025">
        <ele>773</ele>
        <time>2022-10-06T23:05:33Z</time>
      </trkpt>
      <trkpt lat="45.60953" lon="4.59041">
        <ele>779</ele>
        <time>2022-10-06T23:06:49Z</time>
      </trkpt>
      <trkpt lat="45.60978" lon="4.59046">
        <ele>782</ele>
        <time>2022-10-06T23:07:23Z</time>
      </trkpt>
      <trkpt lat="45.61032" lon="4.59055">
        <ele>789</ele>
        <time>2022-10-06T23:08:35Z</time>
      </trkpt>
      <trkpt lat="45.61048" lon="4.59065">
        <ele>791</ele>
        <time>2022-10-06T23:08:59Z</time>
      </trkpt>
      <trkpt lat="45.6109" lon="4.59104">
        <ele>796</ele>
        <time>2022-10-06T23:10:05Z</time>
      </trkpt>
      <trkpt lat="45.61121" lon="4.59122">
        <ele>803</ele>
        <time>2022-10-06T23:10:50Z</time>
      </trkpt>
      <trkpt lat="45.61129" lon="4.59129">
        <ele>805</ele>
        <time>2022-10-06T23:11:03Z</time>
      </trkpt>
      <trkpt lat="45.61146" lon="4.59144">
        <ele>809</ele>
        <time>2022-10-06T23:11:29Z</time>
      </trkpt>
      <trkpt lat="45.61167" lon="4.59169">
        <ele>814</ele>
        <time>2022-10-06T23:12:06Z</time>
      </trkpt>
      <trkpt lat="45.61197" lon="4.59208">
        <ele>819</ele>
        <time>2022-10-06T23:13:00Z</time>
      </trkpt>
      <trkpt lat="45.61229" lon="4.59241">
        <ele>825</ele>
        <time>2022-10-06T23:13:53Z</time>
      </trkpt>
      <trkpt lat="45.61245" lon="4.59246">
        <ele>828</ele>
        <time>2022-10-06T23:14:14Z</time>
      </trkpt>
      <trkpt lat="45.61261" lon="4.59246">
        <ele>831</ele>
        <time>2022-10-06T23:14:36Z</time>
      </trkpt>
      <trkpt lat="45.61378" lon="4.59289">
        <ele>842</ele>
        <time>2022-10-06T23:17:17Z</time>
      </trkpt>
      <trkpt lat="45.61433" lon="4.59306">
        <ele>845</ele>
        <time>2022-10-06T23:18:32Z</time>
      </trkpt>
      <trkpt lat="45.61536" lon="4.59317">
        <ele>853</ele>
        <time>2022-10-06T23:20:50Z</time>
      </trkpt>
      <trkpt lat="45.6158" lon="4.59327">
        <ele>857</ele>
        <time>2022-10-06T23:21:49Z</time>
      </trkpt>
      <trkpt lat="45.61679" lon="4.59336">
        <ele>858</ele>
        <time>2022-10-06T23:24:02Z</time>
      </trkpt>
      <trkpt lat="45.61749" lon="4.59353">
        <ele>857</ele>
        <time>2022-10-06T23:25:36Z</time>
      </trkpt>
      <trkpt lat="45.61793" lon="4.59359">
        <ele>858</ele>
        <time>2022-10-06T23:26:35Z</time>
      </trkpt>
      <trkpt lat="45.6181" lon="4.59361">
        <ele>858</ele>
        <time>2022-10-06T23:26:58Z</time>
      </trkpt>
      <trkpt lat="45.61885" lon="4.59351">
        <ele>862</ele>
        <time>2022-10-06T23:28:39Z</time>
      </trkpt>
      <trkpt lat="45.619" lon="4.59352">
        <ele>863</ele>
        <time>2022-10-06T23:28:59Z</time>
      </trkpt>
      <trkpt lat="45.61929" lon="4.59353">
        <ele>865</ele>
        <time>2022-10-06T23:29:37Z</time>
      </trkpt>
      <trkpt lat="45.61992" lon="4.59332">
        <ele>867</ele>
        <time>2022-10-06T23:31:04Z</time>
      </trkpt>
      <trkpt lat="45.62023" lon="4.59342">
        <ele>867</ele>
        <time>2022-10-06T23:31:46Z</time>
      </trkpt>
      <trkpt lat="45.62053" lon="4.59357">
        <ele>865</ele>
        <time>2022-10-06T23:32:29Z</time>
      </trkpt>
      <trkpt lat="45.62078" lon="4.59379">
        <ele>864</ele>
        <time>2022-10-06T23:33:08Z</time>
      </trkpt>
      <trkpt lat="45.62099" lon="4.59401">
        <ele>863</ele>
        <time>2022-10-06T23:33:43Z</time>
      </trkpt>
      <trkpt lat="45.62092" lon="4.59383">
        <ele>863</ele>
        <time>2022-10-06T23:34:02Z</time>
      </trkpt>
      <trkpt lat="45.62099" lon="4.59401">
        <ele>863</ele>
        <time>2022-10-06T23:34:21Z</time>
      </trkpt>
      <trkpt lat="45.62121" lon="4.59431">
        <ele>861</ele>
        <time>2022-10-06T23:35:02Z</time>
      </trkpt>
      <trkpt lat="45.62185" lon="4.59499">
        <ele>853</ele>
        <time>2022-10-06T23:36:48Z</time>
      </trkpt>
      <trkpt lat="45.6219" lon="4.59509">
        <ele>852</ele>
        <time>2022-10-06T23:36:59Z</time>
      </trkpt>
      <trkpt lat="45.62201" lon="4.5953">
        <ele>849</ele>
        <time>2022-10-06T23:37:24Z</time>
      </trkpt>
      <trkpt lat="45.62209" lon="4.59561">
        <ele>847</ele>
        <time>2022-10-06T23:37:55Z</time>
      </trkpt>
      <trkpt lat="45.62218" lon="4.59608">
        <ele>844</ele>
        <time>2022-10-06T23:38:40Z</time>
      </trkpt>
      <trkpt lat="45.62223" lon="4.59654">
        <ele>841</ele>
        <time>2022-10-06T23:39:24Z</time>
      </trkpt>
      <trkpt lat="45.62223" lon="4.59718">
        <ele>841</ele>
        <time>2022-10-06T23:40:23Z</time>
      </trkpt>
      <trkpt lat="45.62226" lon="4.59726">
        <ele>840</ele>
        <time>2022-10-06T23:40:32Z</time>
      </trkpt>
      <trkpt lat="45.62228" lon="4.59732">
        <ele>839</ele>
        <time>2022-10-06T23:40:38Z</time>
      </trkpt>
      <trkpt lat="45.62246" lon="4.59762">
        <ele>835</ele>
        <time>2022-10-06T23:41:15Z</time>
      </trkpt>
      <trkpt lat="45.62283" lon="4.59819">
        <ele>832</ele>
        <time>2022-10-06T23:42:28Z</time>
      </trkpt>
      <trkpt lat="45.62309" lon="4.59863">
        <ele>830</ele>
        <time>2022-10-06T23:43:21Z</time>
      </trkpt>
      <trkpt lat="45.62345" lon="4.59927">
        <ele>827</ele>
        <time>2022-10-06T23:44:38Z</time>
      </trkpt>
      <trkpt lat="45.62382" lon="4.59964">
        <ele>823</ele>
        <time>2022-10-06T23:45:38Z</time>
      </trkpt>
      <trkpt lat="45.62431" lon="4.60024">
        <ele>823</ele>
        <time>2022-10-06T23:47:04Z</time>
      </trkpt>
      <trkpt lat="45.62441" lon="4.60031">
        <ele>824</ele>
        <time>2022-10-06T23:47:19Z</time>
      </trkpt>
      <trkpt lat="45.62452" lon="4.60038">
        <ele>825</ele>
        <time>2022-10-06T23:47:35Z</time>
      </trkpt>
      <trkpt lat="45.62473" lon="4.60043">
        <ele>826</ele>
        <time>2022-10-06T23:48:04Z</time>
      </trkpt>
      <trkpt lat="45.62487" lon="4.60042">
        <ele>827</ele>
        <time>2022-10-06T23:48:22Z</time>
      </trkpt>
      <trkpt lat="45.62518" lon="4.60029">
        <ele>826</ele>
        <time>2022-10-06T23:49:05Z</time>
      </trkpt>
      <trkpt lat="45.62545" lon="4.60014">
        <ele>825</ele>
        <time>2022-10-06T23:49:44Z</time>
      </trkpt>
      <trkpt lat="45.62557" lon="4.60012">
        <ele>825</ele>
        <time>2022-10-06T23:50:00Z</time>
      </trkpt>
      <trkpt lat="45.62563" lon="4.60011">
        <ele>825</ele>
        <time>2022-10-06T23:50:08Z</time>
      </trkpt>
      <trkpt lat="45.62571" lon="4.60005">
        <ele>824</ele>
        <time>2022-10-06T23:50:20Z</time>
      </trkpt>
      <trkpt lat="45.62603" lon="4.59994">
        <ele>823</ele>
        <time>2022-10-06T23:51:04Z</time>
      </trkpt>
      <trkpt lat="45.62626" lon="4.59991">
        <ele>823</ele>
        <time>2022-10-06T23:51:35Z</time>
      </trkpt>
      <trkpt lat="45.62646" lon="4.59989">
        <ele>823</ele>
        <time>2022-10-06T23:52:02Z</time>
      </trkpt>
      <trkpt lat="45.62687" lon="4.5999">
        <ele>825</ele>
        <time>2022-10-06T23:52:57Z</time>
      </trkpt>
      <trkpt lat="45.62755" lon="4.59989">
        <ele>829</ele>
        <time>2022-10-06T23:54:27Z</time>
      </trkpt>
      <trkpt lat="45.62759" lon="4.59983">
        <ele>828</ele>
        <time>2022-10-06T23:54:35Z</time>
      </trkpt>
      <trkpt lat="45.62755" lon="4.59989">
        <ele>829</ele>
        <time>2022-10-06T23:54:43Z</time>
      </trkpt>
      <trkpt lat="45.62855" lon="4.5999">
        <ele>834</ele>
        <time>2022-10-06T23:56:56Z</time>
      </trkpt>
      <trkpt lat="45.62898" lon="4.59992">
        <ele>837</ele>
        <time>2022-10-06T23:57:54Z</time>
      </trkpt>
      <trkpt lat="45.6291" lon="4.59995">
        <ele>838</ele>
        <time>2022-10-06T23:58:10Z</time>
      </trkpt>
      <trkpt lat="45.62926" lon="4.59998">
        <ele>840</ele>
        <time>2022-10-06T23:58:31Z</time>
      </trkpt>
      <trkpt lat="45.62934" lon="4.60003">
        <ele>841</ele>
        <time>2022-10-06T23:58:43Z</time>
      </trkpt>
      <trkpt lat="45.62953" lon="4.60027">
        <ele>843</ele>
        <time>2022-10-06T23:59:17Z</time>
      </trkpt>
      <trkpt lat="45.62955" lon="4.60038">
        <ele>843</ele>
        <time>2022-10-06T23:59:28Z</time>
      </trkpt>
      <trkpt lat="45.62955" lon="4.60039">
        <ele>843</ele>
        <time>2022-10-06T23:59:28Z</time>
      </trkpt>
      <trkpt lat="45.62941" lon="4.60069">
        <ele>842</ele>
        <time>2022-10-07T00:00:02Z</time>
      </trkpt>
      <trkpt lat="45.62934" lon="4.60092">
        <ele>842</ele>
        <time>2022-10-07T00:00:26Z</time>
      </trkpt>
      <trkpt lat="45.62907" lon="4.60164">
        <ele>840</ele>
        <time>2022-10-07T00:01:42Z</time>
        <extensions>
          <visugpx:TrkExtension xmlns:visugpx="https://www.visugpx.com/editgpx/">
            <visugpx:node>1</visugpx:node>
            </visugpx:TrkExtension>
        </extensions>
      </trkpt>
    </trkseg>
  </trk>
</gpx>